Time;durP1;ratioP1;P1;durP2;ratioP2;P2;SDS_P1;SDS_P2;PMS_P1;PMS_P2;Temp;Humidity;BMP_temperature;BMP_pressure;BME280_temperature;BME280_humidity;BME280_pressure;Samples;Min_cycle;Max_cycle;Signal;HPM_P1;HPM_P2
2022/08/08 00:00:06;;;;;;;;;;;;;;;23.99;56.65;99518.00;3147184;28;19924;-60
2022/08/08 00:01:40;;;;;;;;;;;;;;;23.98;56.48;99527.78;3146983;28;19921;-60
2022/08/08 00:03:17;;;;;;;;;;;;;;;23.97;56.43;99523.47;3144611;28;19925;-60
2022/08/08 00:04:54;;;;;;;;;;;;;;;23.98;56.60;99527.78;3144036;28;19930;-60
2022/08/08 00:06:32;;;;;;;;;;;;;;;23.94;56.61;99522.97;3143262;28;19928;-60
2022/08/08 00:08:13;;;;;;;;;;;;;;;23.90;56.86;99529.56;3144033;28;19994;-60
2022/08/08 00:09:50;;;;;;;;;;;;;;;23.90;57.00;99529.56;3146800;28;20395;-60
2022/08/08 00:11:24;;;;;;;;;;;;;;;23.90;56.67;99527.78;3141683;28;19920;-60
2022/08/08 00:13:01;;;;;;;;;;;;;;;23.90;56.66;99527.78;3147205;28;19935;-60
2022/08/08 00:14:42;;;;;;;;;;;;;;;23.92;56.71;99524.94;3147192;28;19924;-60
2022/08/08 00:16:19;;;;;;;;;;;;;;;23.93;56.41;99534.56;3140915;28;19924;-61
2022/08/08 00:17:52;;;;;;;;;;;;;;;23.87;57.26;99527.25;3141350;28;19931;-60
2022/08/08 00:19:27;;;;;;;;;;;;;;;23.86;56.90;99531.72;3146730;28;20386;-60
2022/08/08 00:20:59;;;;;;;;;;;;;;;23.86;57.06;99529.06;3144216;28;19924;-60
2022/08/08 00:22:36;;;;;;;;;;;;;;;23.83;57.25;99524.91;3145396;28;19935;-60
2022/08/08 00:24:13;;;;;;;;;;;;;;;23.77;57.56;99528.22;3146854;28;20280;-60
2022/08/08 00:25:48;;;;;;;;;;;;;;;23.77;57.26;99527.38;3146811;28;19925;-60
2022/08/08 00:27:20;;;;;;;;;;;;;;;23.76;57.32;99523.06;3147228;28;19920;-60
2022/08/08 00:28:53;;;;;;;;;;;;;;;23.72;58.02;99522.56;3146846;28;20296;-60
2022/08/08 00:30:26;;;;;;;;;;;;;;;23.69;57.92;99520.16;3146731;28;19924;-60
2022/08/08 00:32:01;;;;;;;;;;;;;;;23.68;58.06;99518.50;3148874;28;19936;-60
2022/08/08 00:33:36;;;;;;;;;;;;;;;23.69;57.89;99516.69;3152990;28;19931;-60
2022/08/08 00:35:20;;;;;;;;;;;;;;;23.68;58.14;99518.50;3149128;28;19931;-60
2022/08/08 00:36:56;;;;;;;;;;;;;;;23.64;58.58;99511.84;3144239;28;20342;-60
2022/08/08 00:38:40;;;;;;;;;;;;;;;23.61;58.13;99512.19;3149316;28;19920;-60
2022/08/08 00:40:42;;;;;;;;;;;;;;;23.54;59.11;99506.66;3149393;28;19928;-61
2022/08/08 00:42:39;;;;;;;;;;;;;;;23.48;58.80;99512.59;3123055;28;19929;-61
2022/08/08 00:44:29;;;;;;;;;;;;;;;23.44;59.48;99513.09;3130366;28;19951;-60
2022/08/08 00:46:05;;;;;;;;;;;;;;;23.39;59.61;99514.38;3145602;28;19920;-59
2022/08/08 00:47:51;;;;;;;;;;;;;;;23.40;59.29;99517.91;3149127;28;19924;-60
2022/08/08 00:49:44;;;;;;;;;;;;;;;23.36;59.37;99522.69;3147358;28;20261;-59
2022/08/08 00:51:34;;;;;;;;;;;;;;;23.36;59.32;99522.69;3133586;28;20284;-60
2022/08/08 00:53:12;;;;;;;;;;;;;;;23.37;59.11;99526.19;3138293;28;20567;-61
2022/08/08 00:55:01;;;;;;;;;;;;;;;23.33;59.70;99520.34;3138204;28;19939;-60
2022/08/08 00:57:00;;;;;;;;;;;;;;;23.29;60.15;99523.47;3138172;28;19924;-60
2022/08/08 00:58:50;;;;;;;;;;;;;;;23.24;60.08;99531.91;3138491;28;19928;-61
2022/08/08 01:00:24;;;;;;;;;;;;;;;23.24;59.71;99542.53;3138248;28;20671;-61
2022/08/08 01:02:00;;;;;;;;;;;;;;;23.25;59.46;99546.03;3138324;28;20297;-61
2022/08/08 01:03:47;;;;;;;;;;;;;;;23.27;59.58;99541.41;3141831;28;20847;-61
2022/08/08 01:05:35;;;;;;;;;;;;;;;23.27;59.66;99547.53;3131399;28;20218;-61
2022/08/08 01:07:29;;;;;;;;;;;;;;;23.28;59.94;99541.25;3138473;28;19924;-61
2022/08/08 01:09:28;;;;;;;;;;;;;;;23.24;60.07;99542.53;3137919;28;19939;-61
2022/08/08 01:11:24;;;;;;;;;;;;;;;23.20;60.45;99543.03;3137717;28;19930;-60
2022/08/08 01:13:14;;;;;;;;;;;;;;;23.17;60.60;99541.50;3119026;28;19928;-61
2022/08/08 01:15:04;;;;;;;;;;;;;;;23.13;60.79;99545.44;3134100;28;19924;-61
2022/08/08 01:17:00;;;;;;;;;;;;;;;23.13;60.66;99548.97;3138137;28;19974;-60
2022/08/08 01:18:45;;;;;;;;;;;;;;;23.11;60.80;99536.81;3133077;28;19936;-60
2022/08/08 01:20:37;;;;;;;;;;;;;;;23.06;61.30;99545.25;3135960;28;20314;-61
2022/08/08 01:22:33;;;;;;;;;;;;;;;23.08;60.79;99545.09;3134049;28;19931;-61
2022/08/08 01:24:20;;;;;;;;;;;;;;;23.06;60.76;99550.56;3122952;28;19955;-60
2022/08/08 01:26:09;;;;;;;;;;;;;;;23.07;61.19;99552.25;3137887;28;20125;-61
2022/08/08 01:28:11;;;;;;;;;;;;;;;23.02;61.56;99549.22;3132545;28;20386;-60
2022/08/08 01:30:00;;;;;;;;;;;;;;;22.98;61.51;99547.00;3111275;28;19936;-60
2022/08/08 01:31:50;;;;;;;;;;;;;;;22.94;61.74;99551.78;3110321;28;19924;-60
2022/08/08 01:33:33;;;;;;;;;;;;;;;22.88;62.48;99555.03;3135287;28;20343;-61
2022/08/08 01:35:27;;;;;;;;;;;;;;;22.82;62.26;99548.53;3138109;28;19928;-62
2022/08/08 01:37:09;;;;;;;;;;;;;;;22.77;62.99;99560.59;3137758;28;20676;-62
2022/08/08 01:39:04;;;;;;;;;;;;;;;22.69;63.20;99559.56;3137646;28;20271;-62
2022/08/08 01:40:40;;;;;;;;;;;;;;;22.64;63.39;99550.38;3137271;28;19928;-60
2022/08/08 01:42:19;;;;;;;;;;;;;;;22.62;63.04;99550.50;3138139;28;19925;-60
2022/08/08 01:43:58;;;;;;;;;;;;;;;22.60;63.56;99549.03;3137993;28;19924;-60
2022/08/08 01:45:41;;;;;;;;;;;;;;;22.56;64.16;99552.94;3137400;28;19924;-60
2022/08/08 01:47:18;;;;;;;;;;;;;;;22.51;64.02;99550.78;3132122;28;19934;-60
2022/08/08 01:48:59;;;;;;;;;;;;;;;22.48;64.12;99551.91;3137749;28;19924;-61
2022/08/08 01:50:34;;;;;;;;;;;;;;;22.49;63.59;99552.72;3134614;28;19924;-60
2022/08/08 01:52:13;;;;;;;;;;;;;;;22.48;64.15;99562.53;3138102;28;19936;-60
2022/08/08 01:53:47;;;;;;;;;;;;;;;22.49;63.54;99558.88;3131994;28;19928;-61
2022/08/08 01:55:27;;;;;;;;;;;;;;;22.53;63.50;99561.22;3131483;28;19932;-60
2022/08/08 01:57:10;;;;;;;;;;;;;;;22.53;63.93;99558.56;3131180;28;19942;-60
2022/08/08 01:58:44;;;;;;;;;;;;;;;22.49;64.14;99555.38;3132813;28;19924;-60
2022/08/08 02:00:20;;;;;;;;;;;;;;;22.43;64.22;99556.81;3137536;28;19925;-60
2022/08/08 02:01:56;;;;;;;;;;;;;;;22.33;64.79;99558.72;3137938;28;20633;-60
2022/08/08 02:03:34;;;;;;;;;;;;;;;22.26;65.05;99562.94;3140478;28;19924;-60
2022/08/08 02:05:15;;;;;;;;;;;;;;;22.20;65.44;99559.06;3137062;28;19924;-61
2022/08/08 02:07:00;;;;;;;;;;;;;;;22.11;65.74;99561.75;3137072;28;20049;-61
2022/08/08 02:08:38;;;;;;;;;;;;;;;22.12;65.26;99574.03;3137177;28;20672;-61
2022/08/08 02:10:22;;;;;;;;;;;;;;;22.11;65.02;99573.19;3137092;28;19936;-60
2022/08/08 02:11:54;;;;;;;;;;;;;;;22.12;65.03;99574.84;3137646;28;19928;-60
2022/08/08 02:13:31;;;;;;;;;;;;;;;22.13;64.84;99573.06;3134886;28;20372;-60
2022/08/08 02:15:08;;;;;;;;;;;;;;;22.14;64.55;99566.78;3137140;28;19976;-60
2022/08/08 02:16:47;;;;;;;;;;;;;;;22.15;64.50;99566.59;3133752;28;19924;-61
2022/08/08 02:18:31;;;;;;;;;;;;;;;22.16;64.47;99567.47;3142471;28;20019;-61
2022/08/08 02:20:05;;;;;;;;;;;;;;;22.19;64.19;99564.53;3133249;28;19951;-60
2022/08/08 02:23:39;;;;;;;;;;;;;;;22.18;64.16;99562.84;3137463;28;19924;-63
2022/08/08 02:25:15;;;;;;;;;;;;;;;22.15;64.25;99558.66;3137713;28;19924;-61
2022/08/08 02:26:50;;;;;;;;;;;;;;;22.10;64.93;99554.81;3137405;28;20381;-61
2022/08/08 02:28:30;;;;;;;;;;;;;;;22.02;65.16;99558.19;3136776;28;19967;-61
2022/08/08 02:30:04;;;;;;;;;;;;;;;21.96;65.40;99556.97;3147844;28;19924;-61
2022/08/08 02:31:39;;;;;;;;;;;;;;;21.88;65.90;99564.81;3147573;28;19924;-61
2022/08/08 02:33:20;;;;;;;;;;;;;;;21.84;65.99;99555.50;3147735;28;19991;-61
2022/08/08 02:35:05;;;;;;;;;;;;;;;21.81;66.06;99556.63;3147969;28;19924;-61
2022/08/08 02:36:53;;;;;;;;;;;;;;;21.83;65.45;99551.19;3124974;28;19925;-60
2022/08/08 02:38:34;;;;;;;;;;;;;;;21.88;65.41;99553.38;3147730;28;20336;-60
2022/08/08 02:40:09;;;;;;;;;;;;;;;21.88;65.75;99551.56;3148009;28;19939;-60
2022/08/08 02:41:48;;;;;;;;;;;;;;;21.88;65.26;99556.84;3147603;28;19921;-60
2022/08/08 02:43:36;;;;;;;;;;;;;;;21.91;65.17;99555.72;3147162;28;19995;-60
2022/08/08 02:45:17;;;;;;;;;;;;;;;21.91;65.08;99550.44;3147599;28;19920;-60
2022/08/08 02:46:58;;;;;;;;;;;;;;;21.91;65.61;99553.91;3147881;28;19946;-61
2022/08/08 02:48:42;;;;;;;;;;;;;;;21.86;65.64;99556.19;3147942;28;19930;-60
2022/08/08 02:50:33;;;;;;;;;;;;;;;21.84;65.75;99558.16;3141881;28;19982;-61
2022/08/08 02:52:15;;;;;;;;;;;;;;;21.81;65.84;99550.50;3143363;28;19924;-61
2022/08/08 02:53:52;;;;;;;;;;;;;;;21.76;65.96;99556.22;3147020;28;19925;-60
2022/08/08 02:55:39;;;;;;;;;;;;;;;21.73;66.04;99556.50;3147639;28;19924;-61
2022/08/08 02:57:24;;;;;;;;;;;;;;;21.68;66.24;99556.13;3145047;28;19920;-61
2022/08/08 02:59:14;;;;;;;;;;;;;;;21.66;66.49;99551.97;3135197;28;19936;-60
2022/08/08 03:01:06;;;;;;;;;;;;;;;21.65;66.44;99559.09;3147547;28;19959;-61
2022/08/08 03:02:56;;;;;;;;;;;;;;;21.71;65.98;99558.50;3114316;28;20371;-61
2022/08/08 03:04:44;;;;;;;;;;;;;;;21.73;65.88;99564.47;3147326;28;19931;-61
2022/08/08 03:06:33;;;;;;;;;;;;;;;21.75;65.85;99570.47;3147533;28;20319;-60
2022/08/08 03:08:17;;;;;;;;;;;;;;;21.78;65.91;99561.38;3146904;28;20059;-61
2022/08/08 03:10:15;;;;;;;;;;;;;;;21.79;65.66;99568.34;3143465;28;19931;-61
2022/08/08 03:12:03;;;;;;;;;;;;;;;21.80;65.58;99560.25;3120497;28;20313;-61
2022/08/08 03:13:49;;;;;;;;;;;;;;;21.79;65.70;99565.69;3146336;28;19939;-61
2022/08/08 03:15:39;;;;;;;;;;;;;;;21.79;65.61;99561.22;3124667;28;20301;-61
2022/08/08 03:17:13;;;;;;;;;;;;;;;21.80;65.40;99562.91;3140707;28;19943;-61
2022/08/08 03:18:48;;;;;;;;;;;;;;;21.81;65.32;99563.75;3150298;28;19920;-61
2022/08/08 03:20:20;;;;;;;;;;;;;;;21.78;65.73;99569.34;3147285;28;19920;-61
2022/08/08 03:21:51;;;;;;;;;;;;;;;21.79;65.66;99573.66;3147076;28;19928;-61
2022/08/08 03:23:23;;;;;;;;;;;;;;;21.77;65.59;99570.31;3147229;28;19920;-61
2022/08/08 03:24:55;;;;;;;;;;;;;;;21.75;65.67;99574.94;3147281;28;19920;-61
2022/08/08 03:26:30;;;;;;;;;;;;;;;21.76;65.70;99573.94;3147572;28;19927;-61
2022/08/08 03:28:03;;;;;;;;;;;;;;;21.75;65.53;99578.41;3147488;28;19936;-61
2022/08/08 03:29:38;;;;;;;;;;;;;;;21.74;65.29;99579.41;3147210;28;19943;-60
2022/08/08 03:34:44;;;;;;;;;;;;;;;21.75;65.58;99585.53;3143988;28;19921;-60
2022/08/08 03:36:16;;;;;;;;;;;;;;;21.75;65.48;99590.84;3147544;28;20020;-60
2022/08/08 03:37:48;;;;;;;;;;;;;;;21.73;65.79;99598.91;3147171;28;20372;-60
2022/08/08 03:39:21;;;;;;;;;;;;;;;21.74;65.33;99602.41;3147070;28;19920;-60
2022/08/08 03:40:53;;;;;;;;;;;;;;;21.74;65.33;99599.75;3147129;28;19924;-60
2022/08/08 03:42:24;;;;;;;;;;;;;;;21.77;65.30;99602.13;3147228;28;19929;-60
2022/08/08 03:43:56;;;;;;;;;;;;;;;21.75;65.27;99593.47;3147069;28;19928;-60
2022/08/08 03:45:28;;;;;;;;;;;;;;;21.74;65.54;99597.09;3147234;28;20124;-60
2022/08/08 03:46:59;;;;;;;;;;;;;;;21.69;65.63;99597.56;3147296;28;19920;-60
2022/08/08 03:48:31;;;;;;;;;;;;;;;21.68;65.62;99595.88;3147089;28;19951;-60
2022/08/08 03:50:02;;;;;;;;;;;;;;;21.66;65.85;99599.66;3146847;28;20375;-60
2022/08/08 03:51:35;;;;;;;;;;;;;;;21.68;65.40;99602.97;3147196;28;19931;-60
2022/08/08 03:53:06;;;;;;;;;;;;;;;21.68;65.32;99603.84;3146970;28;20283;-60
2022/08/08 03:54:41;;;;;;;;;;;;;;;21.69;65.14;99602.84;3146843;28;19932;-61
2022/08/08 03:56:14;;;;;;;;;;;;;;;21.74;64.98;99607.69;3147190;28;19932;-60
2022/08/08 03:57:47;;;;;;;;;;;;;;;21.75;65.26;99604.09;3147156;28;19928;-60
2022/08/08 03:59:18;;;;;;;;;;;;;;;21.75;65.29;99610.22;3147080;28;19931;-60
2022/08/08 04:00:52;;;;;;;;;;;;;;;21.75;65.11;99617.34;3147054;28;19920;-60
2022/08/08 04:02:23;;;;;;;;;;;;;;;21.76;64.86;99614.53;3147092;28;20031;-60
2022/08/08 04:03:55;;;;;;;;;;;;;;;21.77;64.93;99612.72;3153136;28;19920;-60
2022/08/08 04:05:27;;;;;;;;;;;;;;;21.81;64.69;99616.75;3147139;28;19939;-61
2022/08/08 04:06:59;;;;;;;;;;;;;;;21.80;64.91;99615.09;3149408;28;19931;-60
2022/08/08 04:08:31;;;;;;;;;;;;;;;21.81;64.84;99614.09;3149635;28;19920;-60
2022/08/08 04:10:04;;;;;;;;;;;;;;;21.83;64.70;99619.25;3149845;28;19935;-60
2022/08/08 04:11:39;;;;;;;;;;;;;;;21.84;64.82;99616.47;3149382;28;20315;-61
2022/08/08 04:13:10;;;;;;;;;;;;;;;21.86;64.55;99624.25;3149503;28;19920;-62
2022/08/08 04:14:42;;;;;;;;;;;;;;;21.89;64.41;99619.50;3148756;28;19990;-60
2022/08/08 04:16:14;;;;;;;;;;;;;;;21.89;64.54;99618.66;3147804;28;19928;-60
2022/08/08 04:17:45;;;;;;;;;;;;;;;21.90;64.65;99625.66;3149342;28;19931;-60
2022/08/08 04:19:17;;;;;;;;;;;;;;;21.86;64.70;99624.25;3148437;28;19924;-60
2022/08/08 04:20:48;;;;;;;;;;;;;;;21.88;64.68;99622.31;3149577;28;19932;-60
2022/08/08 04:22:20;;;;;;;;;;;;;;;21.85;64.85;99622.59;3149513;28;19995;-60
2022/08/08 04:23:52;;;;;;;;;;;;;;;21.83;64.85;99620.09;3149502;28;19924;-60
2022/08/08 04:25:25;;;;;;;;;;;;;;;21.84;64.96;99627.06;3149191;28;19940;-60
2022/08/08 04:26:55;;;;;;;;;;;;;;;21.83;65.17;99620.09;3149583;28;19935;-60
2022/08/08 04:28:27;;;;;;;;;;;;;;;21.82;65.18;99631.66;3149501;28;19936;-60
2022/08/08 04:29:58;;;;;;;;;;;;;;;21.86;64.94;99629.56;3149154;28;19920;-60
2022/08/08 04:31:29;;;;;;;;;;;;;;;21.88;65.01;99635.56;3149068;28;19930;-60
2022/08/08 04:33:01;;;;;;;;;;;;;;;21.85;64.96;99634.03;3149547;28;19924;-60
2022/08/08 04:34:33;;;;;;;;;;;;;;;21.84;65.20;99631.53;3152379;28;19931;-60
2022/08/08 04:36:05;;;;;;;;;;;;;;;21.84;65.29;99627.06;3149219;28;19947;-60
2022/08/08 04:37:37;;;;;;;;;;;;;;;21.84;65.15;99632.38;3149291;28;20364;-60
2022/08/08 04:39:08;;;;;;;;;;;;;;;21.87;65.03;99629.41;3149431;28;20015;-60
2022/08/08 04:40:41;;;;;;;;;;;;;;;21.91;64.83;99628.13;3149292;28;19936;-60
2022/08/08 04:42:13;;;;;;;;;;;;;;;21.92;64.76;99629.81;3149268;28;19943;-60
2022/08/08 04:43:44;;;;;;;;;;;;;;;21.97;64.81;99635.50;3149408;28;19920;-60
2022/08/08 04:45:16;;;;;;;;;;;;;;;21.99;64.65;99638.03;3148831;28;19924;-60
2022/08/08 04:46:47;;;;;;;;;;;;;;;22.05;64.60;99637.44;3149089;28;19920;-60
2022/08/08 04:48:19;;;;;;;;;;;;;;;22.08;64.37;99637.16;3149361;28;20073;-60
2022/08/08 04:49:50;;;;;;;;;;;;;;;22.13;64.39;99636.72;3149352;28;20316;-60
2022/08/08 04:51:22;;;;;;;;;;;;;;;22.14;64.26;99639.19;3147239;28;20314;-60
2022/08/08 04:52:54;;;;;;;;;;;;;;;22.16;63.97;99633.75;3149240;28;19920;-60
2022/08/08 04:54:26;;;;;;;;;;;;;;;22.21;64.02;99636.81;3148983;28;20581;-60
2022/08/08 04:55:59;;;;;;;;;;;;;;;22.25;63.88;99646.16;3149171;28;20405;-60
2022/08/08 04:57:30;;;;;;;;;;;;;;;22.28;63.91;99640.56;3149016;28;20280;-61
2022/08/08 04:59:01;;;;;;;;;;;;;;;22.29;63.83;99646.69;3148973;28;19925;-61
2022/08/08 05:00:33;;;;;;;;;;;;;;;22.31;63.78;99650.06;3149229;28;19931;-60
2022/08/08 05:02:05;;;;;;;;;;;;;;;22.33;63.98;99648.06;3149315;28;19931;-61
2022/08/08 05:03:36;;;;;;;;;;;;;;;22.35;63.81;99643.44;3152891;28;20307;-61
2022/08/08 05:05:08;;;;;;;;;;;;;;;22.40;63.58;99657.13;3149139;28;19932;-60
2022/08/08 05:06:40;;;;;;;;;;;;;;;22.42;63.83;99655.13;3149212;28;19931;-60
2022/08/08 05:08:12;;;;;;;;;;;;;;;22.43;63.71;99655.00;3149334;28;19982;-60
2022/08/08 05:09:44;;;;;;;;;;;;;;;22.46;63.47;99659.16;3149157;28;19921;-62
2022/08/08 05:11:17;;;;;;;;;;;;;;;22.49;63.18;99653.56;3149084;28;19924;-61
2022/08/08 05:12:49;;;;;;;;;;;;;;;22.54;63.33;99650.44;3148957;28;19926;-61
2022/08/08 05:14:21;;;;;;;;;;;;;;;22.59;63.11;99659.63;3149113;28;19920;-61
2022/08/08 05:15:52;;;;;;;;;;;;;;;22.64;63.18;99656.53;3148715;28;19955;-61
2022/08/08 05:17:24;;;;;;;;;;;;;;;22.69;62.76;99657.75;3148202;28;19931;-60
2022/08/08 05:18:56;;;;;;;;;;;;;;;22.75;62.63;99653.69;3154680;28;19956;-61
2022/08/08 05:20:28;;;;;;;;;;;;;;;22.81;62.36;99660.19;3148858;28;20015;-61
2022/08/08 05:21:59;;;;;;;;;;;;;;;22.86;62.29;99663.22;3148792;28;20034;-61
2022/08/08 05:23:31;;;;;;;;;;;;;;;22.90;62.24;99657.47;3148678;28;19932;-61
2022/08/08 05:25:03;;;;;;;;;;;;;;;22.97;62.26;99656.88;3148954;28;19920;-61
2022/08/08 05:26:36;;;;;;;;;;;;;;;23.03;62.02;99653.63;3147983;28;19928;-62
2022/08/08 05:28:08;;;;;;;;;;;;;;;23.08;62.14;99652.19;3148801;28;20304;-62
2022/08/08 05:29:41;;;;;;;;;;;;;;;23.14;61.97;99656.88;3148901;28;19921;-61
2022/08/08 05:31:12;;;;;;;;;;;;;;;23.20;61.52;99658.09;3148627;28;20003;-61
2022/08/08 05:32:44;;;;;;;;;;;;;;;23.26;61.65;99653.97;3148627;28;19923;-61
2022/08/08 05:34:20;;;;;;;;;;;;;;;23.30;61.21;99653.50;3150213;28;20258;-62
2022/08/08 05:35:53;;;;;;;;;;;;;;;23.37;61.05;99657.22;3148926;28;19932;-62
2022/08/08 05:37:25;;;;;;;;;;;;;;;23.44;60.94;99659.25;3149160;28;19931;-61
2022/08/08 05:38:58;;;;;;;;;;;;;;;23.48;61.11;99650.78;3149054;28;19924;-62
2022/08/08 05:40:30;;;;;;;;;;;;;;;23.54;60.90;99652.81;3145310;28;19931;-61
2022/08/08 05:42:03;;;;;;;;;;;;;;;23.60;60.80;99643.41;3148896;28;19998;-62
2022/08/08 05:43:36;;;;;;;;;;;;;;;23.68;60.62;99654.09;3148717;28;19931;-62
2022/08/08 05:45:08;;;;;;;;;;;;;;;23.76;60.28;99654.19;3148465;28;20171;-63
2022/08/08 05:46:41;;;;;;;;;;;;;;;23.86;60.31;99664.69;3148423;28;19924;-62
2022/08/08 05:48:13;;;;;;;;;;;;;;;23.96;60.20;99665.44;3148916;28;19920;-62
2022/08/08 05:49:47;;;;;;;;;;;;;;;24.04;59.40;99668.09;3148913;28;20015;-64
2022/08/08 05:51:18;;;;;;;;;;;;;;;24.16;59.01;99667.81;3148495;28;20033;-64
2022/08/08 05:52:51;;;;;;;;;;;;;;;24.23;59.13;99661.72;3148328;28;20288;-64
2022/08/08 05:54:22;;;;;;;;;;;;;;;24.35;58.92;99674.72;3148490;28;20355;-63
2022/08/08 05:55:55;;;;;;;;;;;;;;;24.44;58.61;99668.47;3148661;28;19935;-63
2022/08/08 05:57:29;;;;;;;;;;;;;;;24.55;58.23;99683.28;3148411;28;19920;-63
2022/08/08 05:59:03;;;;;;;;;;;;;;;24.62;57.99;99679.00;3148161;28;19997;-63
2022/08/08 06:00:35;;;;;;;;;;;;;;;24.73;57.89;99678.69;3148737;28;19924;-63
2022/08/08 06:03:09;;;;;;;;;;;;;;;24.82;58.10;99677.72;3148609;28;19935;-62
2022/08/08 06:04:03;;;;;;;;;;;;;;;24.93;57.33;99685.38;3149688;28;19920;-63
2022/08/08 06:05:38;;;;;;;;;;;;;;;25.01;56.82;99673.06;3148543;28;20018;-64
2022/08/08 06:07:10;;;;;;;;;;;;;;;25.11;56.49;99676.38;3148410;28;19935;-64
2022/08/08 06:08:44;;;;;;;;;;;;;;;25.19;56.35;99677.25;3143042;28;19924;-63
2022/08/08 06:10:15;;;;;;;;;;;;;;;25.29;55.30;99677.13;3148393;28;19970;-62
2022/08/08 06:11:47;;;;;;;;;;;;;;;25.45;55.07;99680.75;3148354;28;19920;-63
2022/08/08 06:13:21;;;;;;;;;;;;;;;25.60;54.52;99682.56;3148436;28;19920;-62
2022/08/08 06:14:53;;;;;;;;;;;;;;;25.75;53.75;99680.03;3148168;28;19925;-63
2022/08/08 06:16:24;;;;;;;;;;;;;;;25.87;53.26;99683.22;3147813;28;19921;-62
2022/08/08 06:17:57;;;;;;;;;;;;;;;25.95;52.98;99685.03;3149544;28;19924;-62
2022/08/08 06:19:29;;;;;;;;;;;;;;;25.99;53.12;99681.84;3150767;28;19924;-62
2022/08/08 06:21:01;;;;;;;;;;;;;;;26.04;52.62;99684.00;3147658;28;19920;-62
2022/08/08 06:22:32;;;;;;;;;;;;;;;26.09;52.92;99679.00;3139389;28;19932;-63
2022/08/08 06:24:05;;;;;;;;;;;;;;;26.15;52.66;99686.31;3141902;28;19920;-64
2022/08/08 06:25:40;;;;;;;;;;;;;;;26.18;52.09;99682.47;3146608;28;19924;-64
2022/08/08 06:27:12;;;;;;;;;;;;;;;26.23;52.12;99682.75;3143808;28;19925;-64
2022/08/08 06:28:49;;;;;;;;;;;;;;;26.30;52.07;99684.56;3145988;28;19991;-65
2022/08/08 06:30:20;;;;;;;;;;;;;;;26.37;51.61;99686.53;3145125;28;19924;-64
2022/08/08 06:31:54;;;;;;;;;;;;;;;26.37;50.79;99686.53;3147902;28;19924;-64
2022/08/08 06:33:27;;;;;;;;;;;;;;;26.38;50.49;99683.69;3146021;28;19924;-64
2022/08/08 06:35:00;;;;;;;;;;;;;;;26.41;50.15;99680.66;3146544;28;19928;-64
2022/08/08 06:36:36;;;;;;;;;;;;;;;26.47;49.06;99680.00;3144429;28;19924;-62
2022/08/08 06:38:10;;;;;;;;;;;;;;;26.52;49.11;99677.63;3141306;28;19940;-62
2022/08/08 06:39:43;;;;;;;;;;;;;;;26.56;48.75;99680.78;3142258;28;19928;-63
2022/08/08 06:41:17;;;;;;;;;;;;;;;26.61;48.58;99678.41;3140479;28;19982;-63
2022/08/08 06:42:53;;;;;;;;;;;;;;;26.69;48.63;99678.38;3141600;28;19924;-62
2022/08/08 06:44:27;;;;;;;;;;;;;;;26.78;48.51;99679.16;3136557;28;19924;-61
2022/08/08 06:45:59;;;;;;;;;;;;;;;26.85;48.59;99684.63;3142566;28;19928;-61
2022/08/08 06:47:30;;;;;;;;;;;;;;;26.93;48.58;99687.25;3146923;28;19924;-63
2022/08/08 06:49:02;;;;;;;;;;;;;;;26.99;48.21;99683.84;3145527;28;20277;-62
2022/08/08 06:50:33;;;;;;;;;;;;;;;27.07;48.61;99691.00;3146879;28;19931;-61
2022/08/08 06:52:06;;;;;;;;;;;;;;;27.17;48.43;99686.25;3145549;28;19920;-62
2022/08/08 06:53:38;;;;;;;;;;;;;;;27.26;48.24;99685.19;3146118;28;19935;-63
2022/08/08 06:55:09;;;;;;;;;;;;;;;27.34;48.29;99682.44;3141886;28;20012;-61
2022/08/08 06:56:43;;;;;;;;;;;;;;;27.43;48.39;99683.19;3150540;28;19925;-60
2022/08/08 06:58:15;;;;;;;;;;;;;;;27.51;47.43;99684.94;3144912;28;20210;-60
2022/08/08 06:59:48;;;;;;;;;;;;;;;27.60;47.34;99686.56;3138323;28;19924;-60
2022/08/08 07:01:20;;;;;;;;;;;;;;;27.67;46.95;99692.84;3140669;28;20352;-60
2022/08/08 07:02:52;;;;;;;;;;;;;;;27.75;46.97;99695.44;3145680;28;19924;-59
2022/08/08 07:04:27;;;;;;;;;;;;;;;27.85;46.38;99687.16;3147720;28;19964;-59
2022/08/08 07:06:00;;;;;;;;;;;;;;;27.94;46.29;99688.72;3142127;28;19925;-60
2022/08/08 07:07:39;;;;;;;;;;;;;;;28.00;46.27;99689.84;3147061;28;19931;-60
2022/08/08 07:09:13;;;;;;;;;;;;;;;28.10;46.59;99687.69;3145654;28;19925;-59
2022/08/08 07:10:48;;;;;;;;;;;;;;;28.20;45.64;99695.47;3145126;28;19928;-59
2022/08/08 07:12:24;;;;;;;;;;;;;;;28.26;44.62;99689.38;3148755;28;19928;-59
2022/08/08 07:13:59;;;;;;;;;;;;;;;28.29;44.17;99689.81;3146188;28;19999;-60
2022/08/08 07:15:36;;;;;;;;;;;;;;;28.39;44.98;99697.56;3146312;28;19924;-60
2022/08/08 07:17:14;;;;;;;;;;;;;;;28.46;44.10;99689.66;3143926;28;19931;-61
2022/08/08 07:18:55;;;;;;;;;;;;;;;28.51;43.38;99692.56;3145466;28;19924;-61
2022/08/08 07:20:29;;;;;;;;;;;;;;;28.55;43.59;99683.97;3147113;28;19936;-61
2022/08/08 07:22:03;;;;;;;;;;;;;;;28.65;43.17;99689.03;3145404;28;19932;-59
2022/08/08 07:23:38;;;;;;;;;;;;;;;28.72;43.00;99691.78;3147577;28;19931;-60
2022/08/08 07:25:12;;;;;;;;;;;;;;;28.78;42.71;99686.50;3146211;28;20382;-60
2022/08/08 07:26:46;;;;;;;;;;;;;;;28.86;43.17;99687.41;3147256;28;19924;-59
2022/08/08 07:28:18;;;;;;;;;;;;;;;28.98;43.40;99691.22;3147462;28;19928;-59
2022/08/08 07:29:51;;;;;;;;;;;;;;;29.04;42.52;99687.81;3143545;28;19933;-60
2022/08/08 07:31:25;;;;;;;;;;;;;;;29.14;41.96;99690.19;3146835;28;19920;-60
2022/08/08 07:32:57;;;;;;;;;;;;;;;29.20;41.43;99694.78;3143803;28;19931;-60
2022/08/08 07:34:30;;;;;;;;;;;;;;;29.27;41.08;99698.34;3145870;28;19947;-60
2022/08/08 07:36:04;;;;;;;;;;;;;;;29.37;40.65;99696.16;3140146;28;20356;-61
2022/08/08 07:37:36;;;;;;;;;;;;;;;29.48;40.80;99692.13;3147188;28;20356;-61
2022/08/08 07:39:08;;;;;;;;;;;;;;;29.55;39.89;99692.16;3147203;28;19924;-61
2022/08/08 07:40:41;;;;;;;;;;;;;;;29.61;39.59;99688.69;3147319;28;19923;-61
2022/08/08 07:42:12;;;;;;;;;;;;;;;29.69;39.72;99684.03;3150447;28;19932;-60
2022/08/08 07:43:44;;;;;;;;;;;;;;;29.79;39.09;99693.63;3147248;28;19960;-60
2022/08/08 07:45:16;;;;;;;;;;;;;;;29.87;39.33;99688.06;3146761;28;19924;-61
2022/08/08 07:46:49;;;;;;;;;;;;;;;29.97;39.23;99688.56;3147355;28;19924;-61
2022/08/08 07:48:20;;;;;;;;;;;;;;;30.06;38.65;99675.81;3140754;28;20258;-60
2022/08/08 07:49:51;;;;;;;;;;;;;;;30.13;37.67;99680.16;3147360;28;19924;-60
2022/08/08 07:51:24;;;;;;;;;;;;;;;30.23;36.65;99679.84;3147407;28;19940;-61
2022/08/08 07:52:58;;;;;;;;;;;;;;;30.32;37.00;99677.81;3147329;28;19927;-60
2022/08/08 07:54:32;;;;;;;;;;;;;;;30.44;38.24;99676.19;3147093;28;19932;-60
2022/08/08 07:56:05;;;;;;;;;;;;;;;30.57;37.84;99678.91;3150158;28;20022;-60
2022/08/08 07:57:41;;;;;;;;;;;;;;;30.69;36.01;99681.03;3146919;28;20261;-60
2022/08/08 07:59:15;;;;;;;;;;;;;;;30.81;35.48;99679.44;3147396;28;19920;-60
2022/08/08 08:00:49;;;;;;;;;;;;;;;30.94;35.81;99682.16;3146958;28;19946;-60
2022/08/08 08:02:23;;;;;;;;;;;;;;;31.05;35.46;99678.00;3147384;28;19935;-61
2022/08/08 08:03:58;;;;;;;;;;;;;;;31.17;35.70;99678.22;3140799;28;20063;-60
2022/08/08 08:05:30;;;;;;;;;;;;;;;31.26;35.43;99679.66;3147459;28;19920;-60
2022/08/08 08:07:01;;;;;;;;;;;;;;;31.35;34.50;99681.16;3147000;28;20375;-61
2022/08/08 08:08:37;;;;;;;;;;;;;;;31.47;35.07;99675.97;3147080;28;20368;-61
2022/08/08 08:10:12;;;;;;;;;;;;;;;31.61;34.76;99663.34;3146987;28;20074;-60
2022/08/08 08:11:48;;;;;;;;;;;;;;;31.78;34.80;99675.31;3150381;28;19983;-60
2022/08/08 08:13:25;;;;;;;;;;;;;;;31.90;34.13;99668.28;3147140;28;19920;-60
2022/08/08 08:15:01;;;;;;;;;;;;;;;31.98;34.64;99664.53;3144447;28;19920;-61
2022/08/08 08:16:34;;;;;;;;;;;;;;;32.02;33.68;99662.22;3143899;28;19978;-61
2022/08/08 08:18:07;;;;;;;;;;;;;;;32.06;33.05;99666.16;3147640;28;19920;-61
2022/08/08 08:19:39;;;;;;;;;;;;;;;32.13;33.65;99654.31;3147175;28;19920;-61
2022/08/08 08:21:11;;;;;;;;;;;;;;;32.24;33.67;99660.06;3146719;28;19935;-62
2022/08/08 08:22:43;;;;;;;;;;;;;;;32.35;33.19;99654.00;3140229;28;19924;-62
2022/08/08 08:24:15;;;;;;;;;;;;;;;32.46;33.56;99660.63;3147150;28;19921;-62
2022/08/08 08:25:47;;;;;;;;;;;;;;;32.58;32.41;99656.22;3146893;28;19990;-62
2022/08/08 08:27:20;;;;;;;;;;;;;;;32.72;31.58;99646.19;3152518;28;19974;-63